createdAt,value
2022-10-02T00:02:21.760Z,9.54
2022-10-02T00:04:54.101Z,9.47
2022-10-02T00:07:23.666Z,9.52
2022-10-02T00:09:55.488Z,9.49
2022-10-02T00:12:24.443Z,9.29
2022-10-02T00:14:54.247Z,9.25
2022-10-02T00:17:24.029Z,9.37
2022-10-02T00:19:55.057Z,9.29
2022-10-02T00:22:37.505Z,9.35
2022-10-02T00:25:24.140Z,9.39
2022-10-02T00:27:53.944Z,9.45
2022-10-02T00:30:20.459Z,9.49
2022-10-02T00:33:09.190Z,9.50
2022-10-02T00:35:51.784Z,9.47
2022-10-02T00:38:18.375Z,9.41
2022-10-02T00:41:08.014Z,9.45
2022-10-02T00:43:53.173Z,9.49
2022-10-02T00:46:38.685Z,9.45
2022-10-02T00:49:26.818Z,9.51
2022-10-02T00:52:12.041Z,9.51
2022-10-02T00:54:44.147Z,9.52
2022-10-02T00:57:25.824Z,9.54
2022-10-02T01:00:03.111Z,9.52
2022-10-02T01:02:47.929Z,9.44
2022-10-02T01:05:15.444Z,9.42
2022-10-02T01:07:42.673Z,9.36
2022-10-02T01:10:10.193Z,9.40
2022-10-02T01:12:38.030Z,9.45
2022-10-02T01:15:14.907Z,9.38
2022-10-02T01:17:41.507Z,9.44
2022-10-02T01:20:12.475Z,9.53
2022-10-02T01:22:45.564Z,9.46
2022-10-02T01:25:12.173Z,9.52
2022-10-02T01:27:39.487Z,9.54
2022-10-02T01:30:11.475Z,9.57
2022-10-02T01:32:43.188Z,9.54
2022-10-02T01:35:09.584Z,9.50
2022-10-02T01:37:38.011Z,9.49
2022-10-02T01:40:09.803Z,9.40
2022-10-02T01:42:37.390Z,9.42
2022-10-02T01:45:06.034Z,9.43
2022-10-02T01:47:42.447Z,9.33
2022-10-02T01:50:11.831Z,9.27
2022-10-02T01:52:59.143Z,9.21
2022-10-02T01:55:41.108Z,9.30
2022-10-02T01:58:18.821Z,9.29
2022-10-02T02:01:04.032Z,9.34
2022-10-02T02:03:44.996Z,9.37
2022-10-02T02:06:17.356Z,9.39
2022-10-02T02:08:49.430Z,9.26
2022-10-02T02:11:20.056Z,9.31
2022-10-02T02:13:53.300Z,9.36
2022-10-02T02:16:29.208Z,9.34
2022-10-02T02:18:58.654Z,9.32
2022-10-02T02:21:28.838Z,9.10
2022-10-02T02:23:56.834Z,9.16
2022-10-02T02:26:25.307Z,9.13
2022-10-02T02:28:54.907Z,9.17
2022-10-02T02:31:24.518Z,9.13
2022-10-02T02:33:55.731Z,9.18
2022-10-02T02:36:24.540Z,9.19
2022-10-02T02:38:53.251Z,9.14
2022-10-02T02:41:24.681Z,9.11
2022-10-02T02:44:04.311Z,9.12
2022-10-02T02:46:55.857Z,9.23
2022-10-02T02:49:27.697Z,9.22
2022-10-02T02:51:56.540Z,9.25
2022-10-02T02:54:36.702Z,9.27
2022-10-02T02:57:05.372Z,9.28
2022-10-02T02:59:33.993Z,9.33
2022-10-02T03:02:00.467Z,9.41
2022-10-02T03:04:26.974Z,9.42
2022-10-02T03:06:57.952Z,9.47
2022-10-02T03:09:26.073Z,9.47
2022-10-02T03:11:52.474Z,9.51
2022-10-02T03:14:27.748Z,9.51
2022-10-02T03:16:56.842Z,9.51
2022-10-02T03:19:32.421Z,9.56
2022-10-02T03:22:07.781Z,9.60
2022-10-02T03:24:42.916Z,9.58
2022-10-02T03:27:12.518Z,9.59
2022-10-02T03:29:55.490Z,9.61
2022-10-02T03:32:23.135Z,9.59
2022-10-02T03:34:49.767Z,9.56
2022-10-02T03:37:17.313Z,9.62
2022-10-02T03:39:44.324Z,9.65
2022-10-02T03:42:11.795Z,9.56
2022-10-02T03:44:38.134Z,9.66
2022-10-02T03:47:04.474Z,9.68
2022-10-02T03:49:30.793Z,9.68
2022-10-02T03:51:57.116Z,9.68
2022-10-02T03:54:23.511Z,9.74
2022-10-02T03:56:54.428Z,9.76
2022-10-02T03:59:30.464Z,9.82
2022-10-02T04:02:00.128Z,9.92
2022-10-02T04:04:28.685Z,9.95
2022-10-02T04:07:00.920Z,10.01
2022-10-02T04:09:33.681Z,10.02
2022-10-02T04:12:03.205Z,10.05
2022-10-02T04:14:39.279Z,10.07
2022-10-02T04:17:13.747Z,10.12
2022-10-02T04:19:42.942Z,10.15
2022-10-02T04:22:25.821Z,10.16
2022-10-02T04:24:57.569Z,10.16
2022-10-02T04:27:36.671Z,10.17
2022-10-02T04:30:05.401Z,10.21
2022-10-02T04:32:34.458Z,10.22
2022-10-02T04:35:02.765Z,10.20
2022-10-02T04:37:37.953Z,10.24
2022-10-02T04:40:22.863Z,10.28
2022-10-02T04:42:52.142Z,10.30
2022-10-02T04:45:18.560Z,10.23
2022-10-02T04:48:03.489Z,10.33
2022-10-02T04:50:35.981Z,10.36
2022-10-02T04:53:14.265Z,10.37
2022-10-02T04:55:49.480Z,10.42
2022-10-02T04:58:18.687Z,10.50
2022-10-02T05:01:01.489Z,10.50
2022-10-02T05:03:30.757Z,10.58
2022-10-02T05:06:14.339Z,10.59
2022-10-02T05:08:43.704Z,10.59
2022-10-02T05:11:28.538Z,10.59
2022-10-02T05:13:57.914Z,10.59
2022-10-02T05:16:27.422Z,10.57
2022-10-02T05:19:12.801Z,10.55
2022-10-02T05:21:39.141Z,10.62
2022-10-02T05:24:12.645Z,10.53
2022-10-02T05:26:58.872Z,10.78
2022-10-02T05:29:38.113Z,10.72
2022-10-02T05:32:06.425Z,10.80
2022-10-02T05:34:43.711Z,10.94
2022-10-02T05:37:13.047Z,10.94
2022-10-02T05:39:42.733Z,10.94
2022-10-02T05:42:23.286Z,11.04
2022-10-02T05:44:52.628Z,11.02
2022-10-02T05:47:30.711Z,10.97
2022-10-02T05:50:03.009Z,10.99
2022-10-02T05:52:40.372Z,11.07
2022-10-02T05:55:25.956Z,11.09
2022-10-02T05:57:54.998Z,11.09
2022-10-02T06:00:24.407Z,11.26
2022-10-02T06:03:09.372Z,11.35
2022-10-02T06:05:38.721Z,11.47
2022-10-02T06:08:06.872Z,11.51
2022-10-02T06:10:41.361Z,11.26
2022-10-02T06:13:11.431Z,11.36
2022-10-02T06:15:49.232Z,11.41
2022-10-02T06:18:21.354Z,11.47
2022-10-02T06:21:03.887Z,11.55
2022-10-02T06:23:34.172Z,11.71
2022-10-02T06:26:06.794Z,11.63
2022-10-02T06:28:51.205Z,11.61
2022-10-02T06:31:21.630Z,11.64
2022-10-02T06:33:48.085Z,11.63
2022-10-02T06:36:21.403Z,11.76
2022-10-02T06:38:55.091Z,11.70
2022-10-02T06:41:27.295Z,11.86
2022-10-02T06:44:17.336Z,11.78
2022-10-02T06:46:51.541Z,11.59
2022-10-02T06:49:36.669Z,11.67
2022-10-02T06:52:27.536Z,11.82
2022-10-02T06:54:53.860Z,11.97
2022-10-02T06:57:48.474Z,11.90
2022-10-02T07:00:18.181Z,11.82
2022-10-02T07:02:44.869Z,12.24
2022-10-02T07:05:30.042Z,12.18
2022-10-02T07:08:11.256Z,12.18
2022-10-02T07:10:45.352Z,12.19
2022-10-02T07:13:30.517Z,12.13
2022-10-02T07:15:56.901Z,12.29
2022-10-02T07:18:35.614Z,12.14
2022-10-02T07:21:09.015Z,12.58
2022-10-02T07:23:53.143Z,12.29
2022-10-02T07:26:38.589Z,12.24
2022-10-02T07:29:20.085Z,12.27
2022-10-02T07:31:52.713Z,12.39
2022-10-02T07:34:37.273Z,12.36
2022-10-02T07:37:29.309Z,12.44
2022-10-02T07:39:58.713Z,12.55
2022-10-02T07:42:34.268Z,12.31
2022-10-02T07:45:19.208Z,12.57
2022-10-02T07:48:04.016Z,12.56
2022-10-02T07:50:33.095Z,12.70
2022-10-02T07:53:07.542Z,12.77
2022-10-02T07:55:38.376Z,12.67
2022-10-02T07:58:14.133Z,12.97
2022-10-02T08:00:43.444Z,12.96
2022-10-02T08:03:15.818Z,12.87
2022-10-02T08:05:47.065Z,13.08
2022-10-02T08:08:39.928Z,12.95
2022-10-02T08:11:09.303Z,13.16
2022-10-02T08:13:48.156Z,13.28
2022-10-02T08:16:16.446Z,13.35
2022-10-02T08:18:55.590Z,13.15
2022-10-02T08:21:24.369Z,13.15
2022-10-02T08:24:04.073Z,13.19
2022-10-02T08:26:35.930Z,13.31
2022-10-02T08:29:21.290Z,13.27
2022-10-02T08:31:51.005Z,13.49
2022-10-02T08:34:18.799Z,13.22
2022-10-02T08:36:54.313Z,13.23
2022-10-02T08:39:20.919Z,13.19
2022-10-02T08:42:06.045Z,13.11
2022-10-02T08:44:36.150Z,13.26
2022-10-02T08:47:27.836Z,13.22
2022-10-02T08:49:54.134Z,13.28
2022-10-02T08:52:38.655Z,13.39
2022-10-02T08:55:23.012Z,13.45
2022-10-02T08:58:10.910Z,13.46
2022-10-02T09:00:59.682Z,13.36
2022-10-02T09:03:45.946Z,13.37
2022-10-02T09:06:30.479Z,13.52
2022-10-02T09:08:57.342Z,13.58
2022-10-02T09:11:45.298Z,13.67
2022-10-02T09:14:13.641Z,13.56
2022-10-02T09:16:40.468Z,13.81
2022-10-02T09:19:31.100Z,13.39
2022-10-02T09:22:14.164Z,13.61
2022-10-02T09:24:56.210Z,13.50
2022-10-02T09:27:22.548Z,13.56
2022-10-02T09:29:50.091Z,13.58
2022-10-02T09:32:34.995Z,13.58
2022-10-02T09:35:23.039Z,13.54
2022-10-02T09:37:50.456Z,13.59
2022-10-02T09:40:38.481Z,13.44
2022-10-02T09:43:23.771Z,13.41
2022-10-02T09:45:51.230Z,13.43
2022-10-02T09:48:36.404Z,13.28
2022-10-02T09:51:22.383Z,13.34
2022-10-02T09:53:51.584Z,13.39
2022-10-02T09:56:19.168Z,13.63
2022-10-02T09:58:51.516Z,13.28
2022-10-02T10:01:18.166Z,13.12
2022-10-02T10:03:53.406Z,13.09
2022-10-02T10:06:39.317Z,13.46
2022-10-02T10:09:07.050Z,13.58
2022-10-02T10:11:52.192Z,13.03
2022-10-02T10:14:29.354Z,13.26
2022-10-02T10:17:14.648Z,13.25
2022-10-02T10:19:46.890Z,13.13
2022-10-02T10:22:28.713Z,13.26
2022-10-02T10:25:13.727Z,13.21
2022-10-02T10:27:43.287Z,13.45
2022-10-02T10:30:24.841Z,13.06
2022-10-02T10:32:54.085Z,12.97
2022-10-02T10:35:24.513Z,13.17
2022-10-02T10:38:32.300Z,12.99
2022-10-02T10:41:10.339Z,13.12
2022-10-02T10:43:56.180Z,13.30
2022-10-02T10:46:41.289Z,13.43
2022-10-02T10:49:09.721Z,13.08
2022-10-02T10:51:45.810Z,13.30
2022-10-02T10:54:17.164Z,13.32
2022-10-02T10:56:47.363Z,13.26
2022-10-02T10:59:28.667Z,13.40
2022-10-02T11:02:07.544Z,13.15
2022-10-02T11:04:36.147Z,13.29
2022-10-02T11:07:02.457Z,13.45
2022-10-02T11:09:41.683Z,13.46
2022-10-02T11:12:33.175Z,13.54
2022-10-02T11:15:09.835Z,13.43
2022-10-02T11:17:56.485Z,13.22
2022-10-02T11:20:41.784Z,13.47
2022-10-02T11:23:08.242Z,13.31
2022-10-02T11:25:34.583Z,13.25
2022-10-02T11:28:07.246Z,13.22
2022-10-02T11:30:41.895Z,13.17
2022-10-02T11:33:18.929Z,13.09
2022-10-02T11:36:00.719Z,13.07
2022-10-02T11:38:27.233Z,13.32
2022-10-02T11:41:13.229Z,13.15
2022-10-02T11:43:44.171Z,13.35
2022-10-02T11:46:21.543Z,13.52
2022-10-02T11:49:08.119Z,13.17
2022-10-02T11:51:53.351Z,13.20
2022-10-02T11:54:45.867Z,13.31
2022-10-02T11:57:21.677Z,13.59
2022-10-02T11:59:57.529Z,13.72
2022-10-02T12:02:36.146Z,13.52
2022-10-02T12:05:18.273Z,13.58
2022-10-02T12:07:50.203Z,13.33
2022-10-02T12:10:33.786Z,13.44
2022-10-02T12:13:03.746Z,13.43
2022-10-02T12:15:40.623Z,13.23
2022-10-02T12:18:21.651Z,13.34
2022-10-02T12:21:16.105Z,13.20
2022-10-02T12:24:08.098Z,13.49
2022-10-02T12:26:59.176Z,13.49
2022-10-02T12:29:31.514Z,13.51
2022-10-02T12:32:12.687Z,13.12
2022-10-02T12:34:39.756Z,13.33
2022-10-02T12:37:40.829Z,13.16
2022-10-02T12:40:26.069Z,13.28
2022-10-02T12:43:04.665Z,13.25
2022-10-02T12:45:43.989Z,13.08
2022-10-02T12:48:18.149Z,13.22
2022-10-02T12:50:53.749Z,13.27
2022-10-02T12:53:30.418Z,13.16
2022-10-02T12:56:20.800Z,13.45
2022-10-02T12:58:55.674Z,13.58
2022-10-02T13:01:38.780Z,13.55
2022-10-02T13:04:08.597Z,13.45
2022-10-02T13:06:42.453Z,13.33
2022-10-02T13:09:21.305Z,13.31
2022-10-02T13:12:14.112Z,13.56
2022-10-02T13:14:51.923Z,13.73
2022-10-02T13:17:18.581Z,13.40
2022-10-02T13:19:54.290Z,13.41
2022-10-02T13:22:39.990Z,13.66
2022-10-02T13:25:25.259Z,13.39
2022-10-02T13:28:00.763Z,13.32
2022-10-02T13:30:33.634Z,13.69
2022-10-02T13:33:17.594Z,13.63
2022-10-02T13:36:02.785Z,13.79
2022-10-02T13:38:29.112Z,13.66
2022-10-02T13:41:09.819Z,13.23
2022-10-02T13:43:49.152Z,13.46
2022-10-02T13:46:15.668Z,13.48
2022-10-02T13:48:45.507Z,13.59
2022-10-02T13:51:30.788Z,13.67
2022-10-02T13:54:22.313Z,13.41
2022-10-02T13:57:07.471Z,13.55
2022-10-02T13:59:36.825Z,13.58
2022-10-02T14:02:13.507Z,13.59
2022-10-02T14:05:05.005Z,13.53
2022-10-02T14:07:40.520Z,13.69
2022-10-02T14:10:07.086Z,13.63
2022-10-02T14:12:36.521Z,13.55
2022-10-02T14:15:02.847Z,13.44
2022-10-02T14:17:32.105Z,13.63
2022-10-02T14:20:17.364Z,13.47
2022-10-02T14:22:48.575Z,13.44
2022-10-02T14:25:22.864Z,13.58
2022-10-02T14:28:08.082Z,13.42
2022-10-02T14:30:55.121Z,13.46
2022-10-02T14:33:33.578Z,13.43
2022-10-02T14:35:59.976Z,13.50
2022-10-02T14:38:31.113Z,13.51
2022-10-02T14:40:59.215Z,13.61
2022-10-02T14:43:44.619Z,13.59
2022-10-02T14:46:26.437Z,13.44
2022-10-02T14:49:07.798Z,13.55
2022-10-02T14:51:38.571Z,13.60
2022-10-02T14:54:11.847Z,13.60
2022-10-02T14:56:41.945Z,13.38
2022-10-02T14:59:10.417Z,13.56
2022-10-02T15:02:12.298Z,13.59
2022-10-02T15:04:52.755Z,13.59
2022-10-02T15:07:24.183Z,13.58
2022-10-02T15:09:52.576Z,13.44
2022-10-02T15:12:21.214Z,13.45
2022-10-02T15:15:07.689Z,13.56
2022-10-02T15:17:55.180Z,13.53
2022-10-02T15:20:29.836Z,13.45
2022-10-02T15:22:57.957Z,13.50
2022-10-02T15:25:27.147Z,13.36
2022-10-02T15:28:35.195Z,13.48
2022-10-02T15:31:10.457Z,13.45
2022-10-02T15:33:44.435Z,13.46
2022-10-02T15:36:49.321Z,13.51
2022-10-02T15:39:34.594Z,13.54
2022-10-02T15:42:05.744Z,13.47
2022-10-02T15:44:38.302Z,13.41
2022-10-02T15:47:38.276Z,13.52
2022-10-02T15:50:23.015Z,13.51
2022-10-02T15:52:52.456Z,13.37
2022-10-02T15:55:38.889Z,13.53
2022-10-02T15:58:14.435Z,13.33
2022-10-02T16:01:02.654Z,13.31
2022-10-02T16:03:41.559Z,13.28
2022-10-02T16:06:26.913Z,13.30
2022-10-02T16:08:56.638Z,13.31
2022-10-02T16:11:28.943Z,13.23
2022-10-02T16:14:15.669Z,13.27
2022-10-02T16:17:00.369Z,13.20
2022-10-02T16:19:33.084Z,13.23
2022-10-02T16:22:17.762Z,13.24
2022-10-02T16:24:44.422Z,13.17
2022-10-02T16:27:23.094Z,13.13
2022-10-02T16:30:01.595Z,13.07
2022-10-02T16:32:38.880Z,13.11
2022-10-02T16:35:07.553Z,13.05
2022-10-02T16:37:45.215Z,12.94
2022-10-02T16:40:32.500Z,12.90
2022-10-02T16:43:20.499Z,12.94
2022-10-02T16:45:52.772Z,12.90
2022-10-02T16:48:24.305Z,12.86
2022-10-02T16:51:12.633Z,12.89
2022-10-02T16:53:53.473Z,12.85
2022-10-02T16:56:24.061Z,12.80
2022-10-02T16:59:09.411Z,12.81
2022-10-02T17:02:12.703Z,12.77
2022-10-02T17:04:46.845Z,12.76
2022-10-02T17:07:32.012Z,12.64
2022-10-02T17:10:04.392Z,12.57
2022-10-02T17:12:52.473Z,12.62
2022-10-02T17:15:23.172Z,12.66
2022-10-02T17:18:08.390Z,12.59
2022-10-02T17:20:42.375Z,12.53
2022-10-02T17:23:33.963Z,12.60
2022-10-02T17:26:21.626Z,12.60
2022-10-02T17:28:48.288Z,12.62
2022-10-02T17:31:34.665Z,12.65
2022-10-02T17:34:11.821Z,12.67
2022-10-02T17:36:47.772Z,12.68
2022-10-02T17:39:14.116Z,12.63
2022-10-02T17:41:58.134Z,12.65
2022-10-02T17:44:33.350Z,12.67
2022-10-02T17:47:23.852Z,12.70
2022-10-02T17:49:58.934Z,12.73
2022-10-02T17:52:59.622Z,12.64
2022-10-02T17:56:03.669Z,12.62
2022-10-02T17:58:40.882Z,12.62
2022-10-02T18:01:26.656Z,12.55
2022-10-02T18:04:07.992Z,12.47
2022-10-02T18:06:52.189Z,12.59
2022-10-02T18:09:27.781Z,12.64
2022-10-02T18:12:23.706Z,12.49
2022-10-02T18:15:16.433Z,12.58
2022-10-02T18:17:42.772Z,12.57
2022-10-02T18:20:11.857Z,12.44
2022-10-02T18:23:01.283Z,12.51
2022-10-02T18:25:38.019Z,12.56
2022-10-02T18:28:13.373Z,12.53
2022-10-02T18:30:42.614Z,12.49
2022-10-02T18:33:33.235Z,12.51
2022-10-02T18:36:27.914Z,12.38
2022-10-02T18:39:06.115Z,12.45
2022-10-02T18:41:48.141Z,12.38
2022-10-02T18:44:17.500Z,12.45
2022-10-02T18:47:05.281Z,12.45
2022-10-02T18:49:42.344Z,12.45
2022-10-02T18:52:17.849Z,12.38
2022-10-02T18:54:47.103Z,12.45
2022-10-02T18:57:25.752Z,12.44
2022-10-02T18:59:55.278Z,12.37
2022-10-02T19:02:21.702Z,12.41
2022-10-02T19:04:54.325Z,12.40
2022-10-02T19:07:38.172Z,12.40
2022-10-02T19:10:21.325Z,12.44
2022-10-02T19:12:51.248Z,12.34
2022-10-02T19:15:24.228Z,12.37
2022-10-02T19:17:57.970Z,12.34
2022-10-02T19:20:35.089Z,12.40
2022-10-02T19:23:02.356Z,12.34
2022-10-02T19:25:28.861Z,12.39
2022-10-02T19:27:55.634Z,12.33
2022-10-02T19:30:30.018Z,12.37
2022-10-02T19:32:57.959Z,12.37
2022-10-02T19:35:28.435Z,12.38
2022-10-02T19:38:00.818Z,12.33
2022-10-02T19:40:33.405Z,12.34
2022-10-02T19:43:05.212Z,12.32
2022-10-02T19:45:33.192Z,12.35
2022-10-02T19:48:02.751Z,12.36
2022-10-02T19:50:44.662Z,12.32
2022-10-02T19:53:23.060Z,12.33
2022-10-02T19:55:52.583Z,12.26
2022-10-02T19:58:21.241Z,12.21
2022-10-02T20:00:50.670Z,12.21
2022-10-02T20:03:19.984Z,12.20
2022-10-02T20:05:59.876Z,12.14
2022-10-02T20:08:29.898Z,12.21
2022-10-02T20:11:05.233Z,12.14
2022-10-02T20:13:37.032Z,12.10
2022-10-02T20:16:22.902Z,12.13
2022-10-02T20:18:50.662Z,12.06
2022-10-02T20:21:48.469Z,11.99
2022-10-02T20:24:19.620Z,11.96
2022-10-02T20:26:47.129Z,11.94
2022-10-02T20:29:19.570Z,11.84
2022-10-02T20:31:50.122Z,11.86
2022-10-02T20:34:23.556Z,11.87
2022-10-02T20:36:58.103Z,11.85
2022-10-02T20:39:29.439Z,12.04
2022-10-02T20:41:58.835Z,12.02
2022-10-02T20:44:27.305Z,11.89
2022-10-02T20:47:12.525Z,11.75
2022-10-02T20:49:52.693Z,11.81
2022-10-02T20:52:40.304Z,11.80
2022-10-02T20:55:06.605Z,11.85
2022-10-02T20:58:01.696Z,11.76
2022-10-02T21:00:32.306Z,11.75
2022-10-02T21:03:31.503Z,11.76
2022-10-02T21:06:12.909Z,11.73
2022-10-02T21:08:51.562Z,11.62
2022-10-02T21:11:25.813Z,11.57
2022-10-02T21:13:52.155Z,11.69
2022-10-02T21:16:34.144Z,11.54
2022-10-02T21:19:19.060Z,11.54
2022-10-02T21:21:53.650Z,11.47
2022-10-02T21:24:23.392Z,11.57
2022-10-02T21:27:02.322Z,11.53
2022-10-02T21:29:36.371Z,11.44
2022-10-02T21:32:11.478Z,11.41
2022-10-02T21:34:45.290Z,11.42
2022-10-02T21:37:27.993Z,11.34
2022-10-02T21:40:16.134Z,11.36
2022-10-02T21:42:51.357Z,11.40
2022-10-02T21:45:36.053Z,11.23
2022-10-02T21:48:04.609Z,11.28
2022-10-02T21:50:32.055Z,11.21
2022-10-02T21:53:20.957Z,11.20
2022-10-02T21:56:05.615Z,11.24
2022-10-02T21:58:47.669Z,11.26
2022-10-02T22:01:36.286Z,11.15
2022-10-02T22:04:31.712Z,11.11
2022-10-02T22:07:05.927Z,11.09
2022-10-02T22:09:44.088Z,10.99
2022-10-02T22:12:17.942Z,10.99
2022-10-02T22:14:53.791Z,10.95
2022-10-02T22:17:23.794Z,10.99
2022-10-02T22:19:53.886Z,10.95
2022-10-02T22:22:38.940Z,11.01
2022-10-02T22:25:11.188Z,10.99
2022-10-02T22:27:47.487Z,11.02
2022-10-02T22:30:23.513Z,11.00
2022-10-02T22:33:08.849Z,10.96
2022-10-02T22:35:52.665Z,11.02
2022-10-02T22:38:33.081Z,11.03
2022-10-02T22:41:06.890Z,11.06
2022-10-02T22:43:46.001Z,11.08
2022-10-02T22:46:37.753Z,11.02
2022-10-02T22:49:18.288Z,10.97
2022-10-02T22:51:49.472Z,10.94
2022-10-02T22:54:15.805Z,10.98
2022-10-02T22:57:01.027Z,10.97
2022-10-02T22:59:28.180Z,10.96
2022-10-02T23:01:58.926Z,10.98
2022-10-02T23:04:45.099Z,10.98
2022-10-02T23:07:16.728Z,10.94
2022-10-02T23:09:50.410Z,10.94
2022-10-02T23:12:28.345Z,10.95
2022-10-02T23:15:01.594Z,10.93
2022-10-02T23:17:35.019Z,10.97
2022-10-02T23:20:04.990Z,10.97
2022-10-02T23:22:34.289Z,11.01
2022-10-02T23:25:14.912Z,10.97
2022-10-02T23:27:54.519Z,10.93
2022-10-02T23:30:22.129Z,11.00
2022-10-02T23:33:00.439Z,10.96
2022-10-02T23:35:27.005Z,10.98
2022-10-02T23:38:14.855Z,10.89
2022-10-02T23:41:18.204Z,10.79
2022-10-02T23:43:51.621Z,10.86
2022-10-02T23:46:23.016Z,10.77
2022-10-02T23:48:49.987Z,10.80
2022-10-02T23:51:19.400Z,10.83
2022-10-02T23:53:48.949Z,10.84
2022-10-02T23:56:27.866Z,10.66
2022-10-02T23:59:17.856Z,10.91
